Terminal Aerodrome Forecast
Issued by NWS

Home | Current Version | Previous Version | Text Only | Print | Product List | Glossary On
Versions: 1 2 3 4 5 6 7 8 9 10 11 12 13 14 15 16 17 18 19
000
FTUS41 KBTV 181700
TAFRUT
TAF
KRUT 181728Z 1818/1918 13012G20KT P6SM BKN150 BKN200
     FM190200 14007KT P6SM BKN070 BKN130
     FM190600 14006KT P6SM OVC035
     FM191300 31014KT P6SM BKN035
      AMD LTD TO CLD VIS AND WIND=

USA.gov is the U.S. government's official web portal to all federal, state and local government web resources and services.